Time;durP1;ratioP1;P1;durP2;ratioP2;P2;SDS_P1;SDS_P2;PMS_P1;PMS_P2;Temp;Humidity;BMP_temperature;BMP_pressure;BME280_temperature;BME280_humidity;BME280_pressure;Samples;Min_cycle;Max_cycle;Signal;HPM_P1;HPM_P2
2022/01/23 00:00:05;;;;;;;36.72;17.25;;;;;;;2.55;100.00;100484.66;5060020;28;20093;-71
2022/01/23 00:02:33;;;;;;;34.60;16.35;;;;;;;2.36;100.00;100462.94;5064715;28;20029;-72
2022/01/23 00:05:05;;;;;;;44.55;17.40;;;;;;;2.41;100.00;100476.78;5069409;28;20469;-73
2022/01/23 00:07:32;;;;;;;39.90;18.13;;;;;;;2.11;100.00;100437.13;5065548;28;20051;-72
2022/01/23 00:09:57;;;;;;;40.28;19.23;;;;;;;2.17;100.00;100453.56;5061654;28;20101;-72
2022/01/23 00:12:25;;;;;;;39.92;18.75;;;;;;;2.27;100.00;100452.88;5066281;28;20162;-72
2022/01/23 00:17:35;;;;;;;41.60;17.73;;;;;;;2.30;100.00;100461.53;5065371;28;20086;-72
2022/01/23 00:20:05;;;;;;;41.63;17.15;;;;;;;2.38;100.00;100479.69;5063171;28;20768;-72
2022/01/23 00:22:40;;;;;;;38.13;17.23;;;;;;;2.32;100.00;100466.78;5065814;28;20466;-72
2022/01/23 00:30:35;;;;;;;39.17;17.65;;;;;;;2.06;100.00;100433.91;5050101;28;20078;-72
2022/01/23 00:33:03;;;;;;;40.47;18.65;;;;;;;2.23;100.00;100470.97;5058291;28;20031;-71
2022/01/23 00:35:30;;;;;;;45.47;19.30;;;;;;;2.31;100.00;100481.94;5058471;28;20025;-71
2022/01/23 00:37:56;;;;;;;42.80;18.15;;;;;;;2.32;100.00;100472.97;5055849;28;20028;-71
2022/01/23 00:40:23;;;;;;;45.83;19.33;;;;;;;2.19;100.00;100451.63;5058437;28;20025;-72
2022/01/23 00:42:48;;;;;;;40.10;18.38;;;;;;;2.33;100.00;100480.03;5057512;28;20112;-72
2022/01/23 00:45:30;;;;;;;43.30;19.13;;;;;;;2.40;100.00;100478.59;5057986;28;20529;-72
2022/01/23 00:48:02;;;;;;;42.78;18.50;;;;;;;2.40;100.00;100475.94;5058070;28;20025;-71
2022/01/23 00:50:34;;;;;;;35.78;17.60;;;;;;;2.32;100.00;100451.59;5056414;28;20036;-72
2022/01/23 00:53:00;;;;;;;41.20;17.75;;;;;;;2.50;100.00;100475.28;5063148;28;20055;-72
2022/01/23 00:55:25;;;;;;;40.97;18.00;;;;;;;2.48;100.00;100467.38;5058998;28;20582;-71
2022/01/23 00:57:50;;;;;;;40.70;17.13;;;;;;;2.44;100.00;100478.38;5062886;28;20035;-72
2022/01/23 01:00:16;;;;;;;40.38;17.42;;;;;;;2.27;100.00;100445.72;5066786;28;20024;-72
2022/01/23 01:02:41;;;;;;;35.05;17.55;;;;;;;2.38;100.00;100461.84;5051701;28;20489;-72
2022/01/23 01:05:08;;;;;;;39.28;17.65;;;;;;;2.42;100.00;100462.47;5064159;28;20035;-72
2022/01/23 01:07:34;;;;;;;38.72;17.08;;;;;;;2.44;100.00;100432.97;5063667;28;20036;-72
2022/01/23 01:10:08;;;;;;;43.75;18.17;;;;;;;2.59;100.00;100439.88;5065983;28;20478;-72
2022/01/23 01:12:41;;;;;;;34.35;16.63;;;;;;;2.60;100.00;100452.28;5052895;28;20474;-72
2022/01/23 01:15:28;;;;;;;35.95;17.48;;;;;;;2.50;100.00;100443.22;5050892;28;20052;-71
2022/01/23 01:31:38;;;;;;;33.13;17.02;;;;;;;2.74;100.00;100457.47;5063033;28;20035;-72
2022/01/23 01:34:11;;;;;;;34.67;16.65;;;;;;;2.54;100.00;100450.03;5063010;28;20124;-72
2022/01/23 01:36:51;;;;;;;34.28;16.30;;;;;;;2.62;100.00;100456.56;5067831;28;20528;-72
2022/01/23 01:39:20;;;;;;;40.03;17.70;;;;;;;2.48;100.00;100471.88;5052476;28;20486;-71
2022/01/23 01:41:46;;;;;;;35.05;16.02;;;;;;;2.65;100.00;100482.19;5061927;28;20051;-72
2022/01/23 01:44:13;;;;;;;32.05;15.70;;;;;;;2.57;100.00;100476.56;5055603;28;20035;-71
2022/01/23 01:46:38;;;;;;;40.22;16.20;;;;;;;2.51;100.00;100476.97;5061678;28;20013;-72
2022/01/23 01:49:05;;;;;;;35.47;16.48;;;;;;;2.53;100.00;100475.06;5056501;28;20042;-71
2022/01/23 01:51:32;;;;;;;38.95;16.95;;;;;;;2.36;100.00;100441.56;5059535;28;20514;-72
2022/01/23 01:54:06;;;;;;;37.33;17.25;;;;;;;2.34;100.00;100452.34;5066635;28;20496;-76
2022/01/23 01:56:38;;;;;;;38.38;17.08;;;;;;;2.36;100.00;100469.13;5068003;28;20048;-77
2022/01/23 02:09:44;;;;;;;33.40;16.15;;;;;;;2.25;100.00;100434.28;5071919;28;20039;-77
2022/01/23 02:12:57;;;;;;;38.97;16.10;;;;;;;2.39;100.00;100454.69;5070956;28;20032;-77
2022/01/23 02:15:28;;;;;;;31.08;14.60;;;;;;;2.39;100.00;100458.22;5073921;28;20418;-77
2022/01/23 02:50:48;;;;;;;39.50;17.50;;;;;;;2.44;100.00;100423.16;5074354;28;20027;-78
2022/01/23 02:56:01;;;;;;;41.25;17.38;;;;;;;2.19;100.00;100402.69;5069481;28;20105;-76
2022/01/23 02:58:51;;;;;;;42.92;17.10;;;;;;;1.79;100.00;100349.50;5073272;28;20456;-77
2022/01/23 03:01:19;;;;;;;39.38;16.88;;;;;;;2.15;100.00;100409.25;5074479;28;20033;-76
2022/01/23 03:03:48;;;;;;;41.70;18.55;;;;;;;2.09;100.00;100426.53;5067029;28;20029;-76
2022/01/23 03:09:21;;;;;;;43.90;17.50;;;;;;;2.32;100.00;100437.41;5063260;28;20119;-76
2022/01/23 03:24:38;;;;;;;41.20;17.15;;;;;;;2.39;100.00;100462.72;5066100;28;20059;-75
2022/01/23 03:32:39;;;;;;;40.53;18.65;;;;;;;2.32;100.00;100464.94;5059936;28;20116;-76
2022/01/23 03:35:05;;;;;;;37.55;17.58;;;;;;;2.21;100.00;100454.19;5055332;28;20083;-76
2022/01/23 03:37:30;;;;;;;33.15;16.30;;;;;;;2.25;100.00;100466.34;5053460;28;20028;-76
2022/01/23 03:39:56;;;;;;;41.17;18.38;;;;;;;2.35;100.00;100472.72;5055537;28;20016;-75
2022/01/23 03:42:21;;;;;;;39.72;18.67;;;;;;;2.09;100.00;100425.69;5061848;28;20035;-77
2022/01/23 03:47:41;;;;;;;42.10;17.13;;;;;;;2.16;100.00;100438.50;5064031;28;20025;-76
2022/01/23 03:50:09;;;;;;;;;;;;;;;2.31;100.00;100470.41;5071275;28;20020;-76
2022/01/23 03:52:35;;;;;;;33.60;15.85;;;;;;;2.32;100.00;100477.47;5066469;28;19908;-75
2022/01/23 03:55:03;;;;;;;37.38;17.50;;;;;;;2.14;100.00;100455.56;5063866;28;20119;-76
2022/01/23 03:57:28;;;;;;;36.90;16.58;;;;;;;2.29;100.00;100470.50;5073125;28;20020;-77
2022/01/23 03:59:53;;;;;;;34.47;16.67;;;;;;;2.21;100.00;100464.88;5070136;28;20032;-75
2022/01/23 04:02:20;;;;;;;35.83;16.80;;;;;;;2.17;100.00;100445.56;5069699;28;20029;-75
2022/01/23 04:04:45;;;;;;;34.50;16.52;;;;;;;1.67;100.00;100350.38;5065299;28;20045;-76
2022/01/23 04:07:15;;;;;;;41.42;17.17;;;;;;;2.27;100.00;100451.06;5052093;28;20083;-76
2022/01/23 04:09:42;;;;;;;40.50;16.35;;;;;;;2.19;100.00;100440.94;5052358;28;20413;-76
2022/01/23 04:12:10;;;;;;;37.13;16.73;;;;;;;2.14;100.00;100436.88;5065405;28;20036;-76
2022/01/23 04:14:40;;;;;;;36.03;16.53;;;;;;;2.19;100.00;100454.28;5061379;28;20029;-76
2022/01/23 04:17:38;;;;;;;33.85;15.52;;;;;;;2.00;100.00;100424.53;5057590;28;20020;-76
2022/01/23 04:20:04;;;;;;;37.95;17.48;;;;;;;2.15;100.00;100439.47;5060453;28;20040;-77
2022/01/23 04:33:41;;;;;;;36.78;16.40;;;;;;;2.24;100.00;100435.28;5065968;28;20051;-75
2022/01/23 04:47:49;;;;;;;36.63;16.35;;;;;;;2.14;100.00;100432.41;5069078;28;20075;-75
2022/01/23 05:01:01;;;;;;;43.03;17.95;;;;;;;1.68;100.00;100389.44;5066903;28;20094;-77
2022/01/23 05:06:11;;;;;;;41.00;17.40;;;;;;;1.96;100.00;100439.91;5071365;28;20101;-77
2022/01/23 05:08:37;;;;;;;41.35;18.08;;;;;;;2.03;100.00;100445.66;5071337;28;20028;-77
2022/01/23 05:11:06;;;;;;;40.88;17.27;;;;;;;2.12;100.00;100466.38;5071329;28;20024;-76
2022/01/23 05:13:31;;;;;;;45.35;17.92;;;;;;;2.13;100.00;100473.41;5053336;28;20029;-77
2022/01/23 05:15:57;;;;;;;35.75;15.98;;;;;;;1.98;100.00;100448.66;5062349;28;20112;-75
2022/01/23 05:18:23;;;;;;;44.65;17.58;;;;;;;2.10;100.00;100454.09;5068813;28;20025;-75
2022/01/23 05:20:56;;;;;;;39.35;18.27;;;;;;;2.22;100.00;100474.56;5069734;28;20032;-75
2022/01/23 05:23:22;;;;;;;42.13;17.90;;;;;;;2.02;100.00;100453.75;5066583;28;20028;-75
2022/01/23 05:25:47;;;;;;;41.13;17.70;;;;;;;1.96;100.00;100463.94;5065147;28;20092;-77
2022/01/23 05:28:12;;;;;;;47.33;17.48;;;;;;;1.82;100.00;100442.69;5053883;28;20036;-76
2022/01/23 05:30:39;;;;;;;43.85;18.65;;;;;;;1.80;100.00;100439.25;5056461;28;20020;-77
2022/01/23 05:33:05;;;;;;;46.28;19.15;;;;;;;1.38;100.00;100363.09;5057652;28;20032;-76
2022/01/23 05:35:31;;;;;;;42.85;17.90;;;;;;;1.75;100.00;100412.03;5062447;28;20067;-76
2022/01/23 05:37:56;;;;;;;46.83;17.75;;;;;;;2.15;100.00;100465.31;5061207;28;20108;-76
2022/01/23 05:40:24;;;;;;;42.47;18.02;;;;;;;1.83;100.00;100417.69;5064632;28;20116;-76
2022/01/23 05:42:50;;;;;;;42.30;17.48;;;;;;;1.94;100.00;100439.16;5068591;28;20087;-76
2022/01/23 05:45:15;;;;;;;41.92;17.00;;;;;;;2.01;100.00;100452.06;5066087;28;20417;-77
2022/01/23 05:47:41;;;;;;;38.25;17.65;;;;;;;1.89;100.00;100430.63;5072333;28;20052;-77
2022/01/23 05:50:07;;;;;;;37.70;17.15;;;;;;;2.03;100.00;100463.50;5056174;28;20127;-77
2022/01/23 05:52:34;;;;;;;35.97;17.23;;;;;;;2.18;100.00;100486.44;5071376;28;20021;-78
2022/01/23 05:55:00;;;;;;;43.70;17.63;;;;;;;2.14;100.00;100484.94;5064053;28;20051;-76
2022/01/23 05:57:25;;;;;;;40.05;16.35;;;;;;;1.98;100.00;100455.81;5073866;28;20024;-76
2022/01/23 05:59:51;;;;;;;36.65;16.58;;;;;;;1.92;100.00;100453.59;5073528;28;20712;-77
2022/01/23 06:02:16;;;;;;;40.70;17.05;;;;;;;1.95;100.00;100464.88;5073769;28;20113;-77
2022/01/23 06:04:41;;;;;;;41.00;16.88;;;;;;;1.91;100.00;100459.84;5061873;28;20082;-77
2022/01/23 06:07:07;;;;;;;43.83;17.20;;;;;;;2.04;100.00;100484.72;5068497;28;20067;-77
2022/01/23 06:09:32;;;;;;;40.50;16.58;;;;;;;1.98;100.00;100487.84;5073618;28;20029;-76
2022/01/23 06:11:57;;;;;;;36.75;17.05;;;;;;;2.11;100.00;100507.38;5070379;28;20020;-77
2022/01/23 06:14:23;;;;;;;42.22;16.55;;;;;;;2.17;100.00;100512.31;5055124;28;20029;-76
2022/01/23 06:16:48;;;;;;;39.13;16.65;;;;;;;2.01;100.00;100484.09;5057860;28;20087;-76
2022/01/23 06:19:14;;;;;;;40.05;17.48;;;;;;;2.05;100.00;100490.94;5059387;28;20029;-76
2022/01/23 06:21:40;;;;;;;39.47;17.13;;;;;;;2.24;100.00;100517.22;5060663;28;20059;-77
2022/01/23 06:26:48;;;;;;;41.00;17.67;;;;;;;2.12;100.00;100489.53;5072380;28;20033;-75
2022/01/23 06:29:16;;;;;;;36.95;17.45;;;;;;;2.04;100.00;100483.88;5070921;28;20020;-76
2022/01/23 06:31:45;;;;;;;40.28;17.45;;;;;;;2.09;100.00;100505.78;5065337;28;20047;-77
2022/01/23 06:34:11;;;;;;;36.53;16.45;;;;;;;2.04;100.00;100497.22;5056978;28;20036;-76
2022/01/23 06:36:37;;;;;;;43.78;18.48;;;;;;;2.09;100.00;100513.78;5068049;28;20040;-77
2022/01/23 06:39:10;;;;;;;43.13;17.65;;;;;;;2.00;100.00;100501.09;5075577;28;20060;-77
2022/01/23 06:41:35;;;;;;;41.58;17.55;;;;;;;1.93;100.00;100492.63;5086415;28;20025;-76
2022/01/23 06:44:02;;;;;;;42.00;18.08;;;;;;;2.06;100.00;100508.66;5068296;28;20031;-76
2022/01/23 06:46:28;;;;;;;43.83;17.23;;;;;;;2.01;100.00;100508.97;5073333;28;20050;-76
2022/01/23 06:48:53;;;;;;;44.03;18.60;;;;;;;1.71;100.00;100446.09;5070564;28;20056;-76
2022/01/23 06:51:19;;;;;;;38.65;17.90;;;;;;;2.05;100.00;100498.97;5071363;28;20078;-75
2022/01/23 06:53:44;;;;;;;36.30;16.48;;;;;;;2.17;100.00;100530.13;5063189;28;20032;-75
2022/01/23 06:56:10;;;;;;;40.90;16.50;;;;;;;1.92;100.00;100486.47;5067491;28;20535;-75
2022/01/23 06:58:35;;;;;;;38.25;16.67;;;;;;;2.20;100.00;100535.25;5065530;28;20442;-75
2022/01/23 07:01:00;;;;;;;35.75;16.23;;;;;;;1.92;100.00;100496.28;5063038;28;20037;-74
2022/01/23 07:03:26;;;;;;;42.40;16.83;;;;;;;2.19;100.00;100538.88;5067797;28;20021;-74
2022/01/23 07:05:52;;;;;;;44.00;18.63;;;;;;;2.03;100.00;100512.41;5061716;28;20028;-75
2022/01/23 07:08:18;;;;;;;38.80;16.33;;;;;;;2.16;100.00;100523.94;5067076;28;20024;-75
2022/01/23 07:10:43;;;;;;;40.40;17.42;;;;;;;2.29;100.00;100537.28;5058793;28;20028;-79
2022/01/23 07:13:09;;;;;;;38.25;17.15;;;;;;;2.26;100.00;100540.16;5065536;28;20073;-79
2022/01/23 07:15:34;;;;;;;37.45;15.48;;;;;;;2.23;100.00;100526.16;5071593;28;20048;-77
2022/01/23 07:17:59;;;;;;;39.05;16.30;;;;;;;2.06;100.00;100511.34;5081688;28;20024;-76
2022/01/23 07:20:25;;;;;;;34.33;16.23;;;;;;;2.27;100.00;100549.88;5070928;28;20024;-80
2022/01/23 07:22:50;;;;;;;41.05;16.85;;;;;;;2.04;100.00;100511.44;5069596;28;20031;-77
2022/01/23 07:25:16;;;;;;;33.17;15.95;;;;;;;2.11;100.00;100517.22;5072814;28;20052;-75
2022/01/23 07:27:49;;;;;;;37.25;16.90;;;;;;;2.41;100.00;100563.13;5072083;28;20040;-78
2022/01/23 07:32:59;;;;;;;38.08;17.35;;;;;;;2.40;100.00;100566.75;5069345;28;20099;-77
2022/01/23 07:35:24;;;;;;;36.42;16.33;;;;;;;2.46;100.00;100576.16;5065976;28;20028;-77
2022/01/23 07:37:50;;;;;;;31.17;15.18;;;;;;;2.37;100.00;100564.31;5074089;28;20717;-77
2022/01/23 07:40:15;;;;;;;35.42;16.10;;;;;;;2.39;100.00;100564.22;5073431;28;20115;-73
2022/01/23 07:42:41;;;;;;;46.55;18.90;;;;;;;2.66;100.00;100568.56;5068402;28;20044;-73
2022/01/23 07:45:07;;;;;;;39.95;17.75;;;;;;;2.65;100.00;100565.03;5053544;28;20096;-74
2022/01/23 07:47:33;;;;;;;36.55;16.15;;;;;;;2.82;100.00;100583.38;5063638;28;20439;-74
2022/01/23 07:50:00;;;;;;;36.53;17.80;;;;;;;2.75;100.00;100597.28;5072175;28;20100;-71
2022/01/23 07:52:29;;;;;;;38.03;18.02;;;;;;;2.85;100.00;100593.84;5063534;28;20398;-71
2022/01/23 07:54:55;;;;;;;;;;;;;;;2.93;100.00;100585.28;5059205;28;20036;-74
2022/01/23 07:57:20;;;;;;;37.28;15.82;;;;;;;2.60;100.00;100567.19;5060997;28;19983;-76
2022/01/23 07:59:45;;;;;;;34.25;15.38;;;;;;;2.49;100.00;100569.72;5065768;28;20505;-75
2022/01/23 08:02:11;;;;;;;37.13;16.33;;;;;;;2.51;100.00;100567.81;5064740;28;20027;-76
2022/01/23 08:04:36;;;;;;;38.63;16.55;;;;;;;2.49;100.00;100559.06;5067504;28;20490;-75
2022/01/23 08:07:30;;;;;;;32.97;15.48;;;;;;;2.24;100.00;100510.03;5055144;28;20425;-75
2022/01/23 08:10:03;;;;;;;39.75;17.02;;;;;;;2.74;100.00;100585.75;5071298;28;20023;-75
2022/01/23 08:12:30;;;;;;;33.45;16.05;;;;;;;2.84;100.00;100592.16;5065689;28;20024;-75
2022/01/23 08:14:57;;;;;;;33.55;15.82;;;;;;;2.92;100.00;100594.28;5069807;28;20121;-76
2022/01/23 08:17:25;;;;;;;36.55;15.07;;;;;;;2.93;100.00;100589.78;5069059;28;20556;-73
2022/01/23 08:19:55;;;;;;;33.20;15.60;;;;;;;3.03;100.00;100590.81;5059391;28;20037;-73
2022/01/23 08:22:22;;;;;;;29.95;15.15;;;;;;;2.93;100.00;100568.38;5063370;28;20023;-74
2022/01/23 08:24:48;;;;;;;32.90;16.75;;;;;;;3.04;100.00;100577.34;5061851;28;20120;-74
2022/01/23 08:27:13;;;;;;;35.90;16.35;;;;;;;3.05;100.00;100552.31;5062369;28;20174;-76
2022/01/23 08:29:38;;;;;;;38.42;17.15;;;;;;;3.23;100.00;100592.91;5063171;28;20032;-74
2022/01/23 08:32:04;;;;;;;35.13;17.95;;;;;;;3.19;100.00;100575.34;5060196;28;20103;-76
2022/01/23 08:34:30;;;;;;;43.15;19.40;;;;;;;3.12;100.00;100558.06;5060227;28;20034;-74
2022/01/23 08:36:55;;;;;;;40.13;21.27;;;;;;;3.48;100.00;100596.44;5065899;28;20029;-76
2022/01/23 08:39:24;;;;;;;34.17;17.17;;;;;;;3.47;100.00;100600.09;5059822;28;20017;-75
2022/01/23 08:41:49;;;;;;;32.20;15.73;;;;;;;3.47;100.00;100584.03;5064814;28;20028;-74
2022/01/23 08:44:16;;;;;;;34.63;16.08;;;;;;;3.82;100.00;100615.31;5064787;28;20039;-75
2022/01/23 08:46:41;;;;;;;34.05;17.13;;;;;;;3.70;100.00;100601.91;5055722;28;20044;-74
2022/01/23 08:49:06;;;;;;;35.70;16.48;;;;;;;3.65;100.00;100587.16;5066686;28;20025;-75
2022/01/23 08:51:32;;;;;;;35.10;16.25;;;;;;;3.78;100.00;100587.09;5060596;28;20021;-74
2022/01/23 08:53:59;;;;;;;37.20;17.10;;;;;;;3.80;100.00;100571.75;5064551;28;20044;-73
2022/01/23 08:56:25;;;;;;;31.73;16.05;;;;;;;3.94;100.00;100566.22;5060572;28;20024;-73
2022/01/23 08:58:50;;;;;;;32.25;16.75;;;;;;;4.14;100.00;100564.69;5069595;28;20090;-75
2022/01/23 09:01:16;;;;;;;32.85;15.52;;;;;;;4.31;100.00;100582.13;5065392;28;20025;-74
2022/01/23 09:03:42;;;;;;;35.58;17.10;;;;;;;4.57;100.00;100610.41;5063554;28;20032;-73
2022/01/23 09:06:08;;;;;;;35.72;16.95;;;;;;;4.57;100.00;100596.16;5063864;28;20028;-74
2022/01/23 09:08:36;;;;;;;33.20;16.55;;;;;;;4.74;98.88;100597.50;5068310;28;20032;-72
2022/01/23 09:11:08;;;;;;;33.87;17.03;;;;;;;5.10;97.67;100603.59;5063792;28;20738;-72
2022/01/23 09:16:06;;;;;;;33.92;17.35;;;;;;;5.39;95.94;100603.88;5052267;28;20443;-71
2022/01/23 09:18:32;;;;;;;33.78;15.95;;;;;;;5.44;94.96;100573.00;5054687;28;20109;-74
2022/01/23 09:20:57;;;;;;;32.10;15.75;;;;;;;5.51;91.58;100559.94;5083587;28;20061;-71
2022/01/23 09:23:23;;;;;;;33.83;16.98;;;;;;;5.85;89.71;100594.72;5068147;28;20024;-71
2022/01/23 09:25:49;;;;;;;31.58;16.02;;;;;;;5.80;88.02;100562.88;5075874;28;20021;-70
2022/01/23 09:28:14;;;;;;;34.95;16.23;;;;;;;6.30;86.92;100591.81;5072535;28;20043;-71
2022/01/23 09:30:43;;;;;;;28.45;15.73;;;;;;;6.41;88.82;100585.50;5058398;28;20024;-70
2022/01/23 09:33:09;;;;;;;34.00;17.25;;;;;;;6.57;87.48;100588.56;5056720;28;20021;-71
2022/01/23 09:35:34;;;;;;;31.35;16.25;;;;;;;6.55;86.25;100577.13;5061303;28;20044;-71
2022/01/23 09:38:00;;;;;;;30.77;16.38;;;;;;;6.53;85.07;100590.69;5073251;28;20036;-70
2022/01/23 09:40:25;;;;;;;32.10;15.68;;;;;;;6.15;87.04;100589.44;5066363;28;20068;-70
2022/01/23 09:42:58;;;;;;;27.70;15.38;;;;;;;5.86;86.50;100540.00;5073123;28;20066;-70
2022/01/23 09:45:24;;;;;;;30.25;16.15;;;;;;;6.13;86.53;100588.75;5077673;28;20031;-70
2022/01/23 09:47:53;;;;;;;30.20;16.05;;;;;;;5.93;88.69;100565.38;5075605;28;20039;-75
2022/01/23 09:50:19;;;;;;;28.73;16.25;;;;;;;6.11;87.01;100587.16;5073155;28;20739;-76
2022/01/23 09:52:45;;;;;;;30.20;16.30;;;;;;;6.05;87.40;100593.03;5076932;28;20041;-76
2022/01/23 09:55:12;;;;;;;26.15;15.25;;;;;;;6.20;89.33;100594.44;5071642;28;20482;-76
2022/01/23 09:57:47;;;;;;;31.63;16.88;;;;;;;6.20;88.78;100605.19;5067663;28;20100;-77
2022/01/23 10:00:25;;;;;;;30.35;15.95;;;;;;;5.59;89.13;100573.56;5066520;28;20040;-76
2022/01/23 10:02:51;;;;;;;28.48;14.75;;;;;;;5.98;88.38;100594.56;5081392;28;20028;-71
2022/01/23 10:05:17;;;;;;;26.60;14.75;;;;;;;6.08;89.37;100593.66;5070722;28;20032;-71
2022/01/23 10:07:44;;;;;;;30.50;15.48;;;;;;;6.26;87.34;100591.25;5067374;28;20108;-72
2022/01/23 10:10:16;;;;;;;25.88;13.77;;;;;;;6.24;87.24;100569.00;5070170;28;20571;-71
2022/01/23 10:12:45;;;;;;;28.30;12.85;;;;;;;6.74;84.18;100563.75;5063589;28;20068;-71
2022/01/23 10:15:11;;;;;;;22.42;13.30;;;;;;;6.99;82.00;100586.63;5065329;28;20398;-71
2022/01/23 10:17:37;;;;;;;25.80;14.38;;;;;;;7.11;79.42;100592.75;5068425;28;20034;-69
2022/01/23 10:20:07;;;;;;;26.88;13.90;;;;;;;6.55;80.00;100569.88;5064512;28;20033;-71
2022/01/23 10:22:34;;;;;;;24.33;13.73;;;;;;;6.74;79.86;100593.31;5069716;28;20048;-70
2022/01/23 10:25:07;;;;;;;26.80;14.20;;;;;;;6.39;83.16;100595.53;5068868;28;20032;-71
2022/01/23 10:28:06;;;;;;;26.80;14.18;;;;;;;6.69;82.45;100584.81;5062278;28;20029;-71
2022/01/23 10:30:46;;;;;;;28.33;14.73;;;;;;;6.23;84.97;100594.16;5066142;28;20146;-74
2022/01/23 10:33:17;;;;;;;33.65;15.90;;;;;;;6.17;86.79;100589.31;5068862;28;20031;-71
2022/01/23 10:35:58;;;;;;;39.05;18.23;;;;;;;6.34;88.00;100591.44;5061281;28;20063;-74
2022/01/23 10:38:26;;;;;;;43.08;18.33;;;;;;;6.46;87.09;100585.97;5055336;28;20086;-74
2022/01/23 10:41:06;;;;;;;29.65;15.07;;;;;;;6.44;85.07;100591.47;5061499;28;20410;-74
2022/01/23 10:46:41;;;;;;;37.63;20.45;;;;;;;6.47;86.67;100561.66;5060954;28;20101;-75
2022/01/23 10:49:07;;;;;;;31.50;16.33;;;;;;;6.52;84.85;100577.34;5065035;28;20390;-73
2022/01/23 10:51:36;;;;;;;31.27;16.58;;;;;;;6.16;86.98;100571.50;5059135;28;20021;-74
2022/01/23 10:54:01;;;;;;;27.02;15.77;;;;;;;6.16;88.46;100571.50;5068161;28;20032;-74
2022/01/23 10:56:29;;;;;;;28.15;15.88;;;;;;;5.96;87.74;100580.41;5073046;28;20756;-74
2022/01/23 10:59:02;;;;;;;31.38;14.30;;;;;;;5.82;88.17;100573.50;5072378;28;20031;-75
2022/01/23 11:01:28;;;;;;;28.80;13.90;;;;;;;5.84;89.29;100572.38;5076869;28;20025;-73
2022/01/23 11:04:11;;;;;;;28.75;14.05;;;;;;;6.02;87.31;100571.81;5068067;28;20494;-75
2022/01/23 11:06:54;;;;;;;26.25;13.30;;;;;;;5.75;87.90;100577.66;5077328;28;20036;-73
2022/01/23 11:09:25;;;;;;;26.23;13.70;;;;;;;5.74;88.40;100555.34;5053189;28;20033;-75
2022/01/23 11:11:59;;;;;;;27.05;13.65;;;;;;;5.80;88.65;100560.19;5064394;28;20398;-74
2022/01/23 11:17:22;;;;;;;27.42;13.93;;;;;;;5.78;86.90;100559.44;5060719;28;20104;-74
2022/01/23 11:19:48;;;;;;;26.30;13.00;;;;;;;5.99;87.66;100574.78;5053002;28;20020;-75
2022/01/23 11:22:29;;;;;;;25.42;12.88;;;;;;;6.26;87.68;100575.09;5059239;28;20599;-73
2022/01/23 11:25:04;;;;;;;25.38;13.07;;;;;;;6.31;87.27;100548.69;5071469;28;20115;-73
2022/01/23 11:27:35;;;;;;;22.58;12.25;;;;;;;6.36;84.83;100546.41;5062292;28;20032;-73
2022/01/23 11:30:13;;;;;;;25.95;13.40;;;;;;;6.26;85.47;100556.28;5066103;28;20417;-73
2022/01/23 11:32:41;;;;;;;25.50;12.98;;;;;;;6.30;83.77;100555.03;5064578;28;20028;-73
2022/01/23 11:35:10;;;;;;;23.58;13.00;;;;;;;6.24;85.28;100528.69;5069249;28;20070;-74
2022/01/23 11:37:47;;;;;;;29.60;13.52;;;;;;;6.23;86.22;100544.94;5058843;28;20059;-74
2022/01/23 11:53:55;;;;;;;24.85;12.63;;;;;;;6.04;86.91;100535.78;5071258;28;20039;-74
2022/01/23 11:56:37;;;;;;;23.45;12.45;;;;;;;6.00;88.41;100545.09;5057491;28;20109;-73
2022/01/23 11:59:18;;;;;;;23.60;12.45;;;;;;;6.08;87.82;100541.75;5069691;28;20486;-74
2022/01/23 12:01:48;;;;;;;22.30;12.07;;;;;;;6.00;88.26;100528.09;5070716;28;20552;-74
2022/01/23 12:04:19;;;;;;;25.00;12.65;;;;;;;5.95;88.81;100516.91;5058106;28;20026;-73
2022/01/23 12:07:15;;;;;;;22.45;12.20;;;;;;;5.96;89.57;100542.78;5060838;28;20105;-72
2022/01/23 12:10:13;;;;;;;22.83;12.18;;;;;;;5.92;90.09;100540.34;5068747;28;20441;-72
2022/01/23 12:12:45;;;;;;;24.80;13.10;;;;;;;5.79;90.17;100520.00;5070001;28;20514;-74
2022/01/23 12:18:29;;;;;;;22.30;11.88;;;;;;;5.86;89.24;100531.94;5058603;28;20517;-75
2022/01/23 12:20:56;;;;;;;27.95;12.45;;;;;;;5.62;89.48;100540.25;5064073;28;20093;-74
2022/01/23 12:23:22;;;;;;;22.90;12.50;;;;;;;5.62;90.22;100540.25;5061056;28;20050;-74
2022/01/23 12:25:49;;;;;;;27.42;12.60;;;;;;;5.62;88.84;100540.25;5070584;28;20016;-74
2022/01/23 12:28:32;;;;;;;23.25;12.15;;;;;;;5.67;89.16;100529.97;5070677;28;20047;-74
2022/01/23 12:31:24;;;;;;;23.25;12.00;;;;;;;5.62;90.39;100524.13;5063179;28;20017;-74
2022/01/23 12:33:52;;;;;;;23.02;12.55;;;;;;;5.54;90.43;100526.63;5066895;28;20024;-75
2022/01/23 12:36:19;;;;;;;25.55;13.68;;;;;;;5.01;92.15;100461.19;5060074;28;20025;-75
2022/01/23 12:38:46;;;;;;;29.77;13.90;;;;;;;5.38;91.08;100532.41;5055682;28;20043;-74
2022/01/23 12:41:26;;;;;;;23.60;12.68;;;;;;;5.36;91.62;100527.16;5067918;28;20035;-74
2022/01/23 12:43:56;;;;;;;;;;;;;;;5.31;92.34;100528.53;5069787;28;20025;-74
2022/01/23 12:46:24;;;;;;;24.65;11.48;;;;;;;5.35;91.12;100520.09;5056824;28;20010;-74
2022/01/23 12:48:49;;;;;;;25.98;13.05;;;;;;;5.36;92.60;100527.16;5066448;28;20051;-74
2022/01/23 12:51:17;;;;;;;23.85;11.63;;;;;;;5.45;91.83;100517.50;5064693;28;20355;-74
2022/01/23 12:53:46;;;;;;;28.40;14.10;;;;;;;5.51;93.33;100516.13;5067298;28;20020;-74
2022/01/23 12:56:23;;;;;;;24.88;12.82;;;;;;;5.47;93.95;100519.06;5059984;28;20035;-75
2022/01/23 12:58:59;;;;;;;25.05;12.63;;;;;;;5.47;94.29;100520.91;5066396;28;20502;-74
2022/01/23 13:01:28;;;;;;;24.92;13.30;;;;;;;5.52;93.32;100532.09;5067996;28;20051;-74
2022/01/23 13:03:58;;;;;;;23.50;12.18;;;;;;;5.45;94.22;100512.16;5068539;28;20534;-74
2022/01/23 13:06:30;;;;;;;26.80;12.52;;;;;;;5.51;93.24;100524.19;5054358;28;20102;-74
2022/01/23 13:09:15;;;;;;;24.30;12.32;;;;;;;5.51;93.08;100519.66;5069690;28;20182;-74
2022/01/23 13:12:02;;;;;;;24.92;12.52;;;;;;;5.59;92.97;100521.72;5062769;28;20479;-74
2022/01/23 13:14:38;;;;;;;28.05;12.70;;;;;;;5.59;92.24;100522.56;5074776;28;20032;-75
2022/01/23 13:26:26;;;;;;;22.38;11.50;;;;;;;5.34;90.63;100494.22;5068010;28;20036;-74
2022/01/23 13:30:56;;;;;;;24.35;10.73;;;;;;;5.71;90.48;100492.00;5056361;28;20082;-74
2022/01/23 13:33:24;;;;;;;21.77;11.85;;;;;;;5.69;89.78;100477.00;5056211;28;20436;-75
2022/01/23 13:35:52;;;;;;;25.38;12.02;;;;;;;5.76;89.77;100488.03;5068522;28;20028;-74
2022/01/23 13:38:20;;;;;;;22.27;11.68;;;;;;;5.84;90.33;100496.28;5070098;28;20104;-74
2022/01/23 13:40:46;;;;;;;21.98;11.85;;;;;;;5.68;90.37;100476.13;5068669;28;20635;-75
2022/01/23 13:59:12;;;;;;;22.55;11.75;;;;;;;5.42;92.37;100464.94;5069495;28;20563;-74
2022/01/23 14:04:26;;;;;;;22.65;11.68;;;;;;;5.28;92.60;100458.03;5068243;28;20035;-74
2022/01/23 14:06:52;;;;;;;25.15;12.90;;;;;;;5.41;91.69;100484.69;5065604;28;20039;-75
2022/01/23 14:09:20;;;;;;;30.20;14.07;;;;;;;5.23;91.30;100445.97;5052615;28;20403;-75
2022/01/23 14:11:46;;;;;;;25.52;13.85;;;;;;;5.46;91.50;100477.09;5052709;28;20108;-75
2022/01/23 14:14:20;;;;;;;25.80;13.13;;;;;;;5.38;90.36;100481.41;5053437;28;20025;-74
2022/01/23 14:16:47;;;;;;;25.08;13.10;;;;;;;5.19;90.89;100437.34;5064565;28;20067;-75
2022/01/23 14:19:23;;;;;;;19.85;10.77;;;;;;;5.35;91.56;100477.16;5065778;28;20401;-75
2022/01/23 14:21:57;;;;;;;24.13;11.35;;;;;;;5.22;90.97;100469.28;5065367;28;20024;-74
2022/01/23 14:24:40;;;;;;;18.90;10.25;;;;;;;5.26;90.98;100475.22;5078343;28;20400;-75
2022/01/23 14:27:09;;;;;;;17.35;8.88;;;;;;;5.23;88.77;100479.03;5067246;28;20565;-74
2022/01/23 14:29:51;;;;;;;17.77;9.68;;;;;;;5.18;88.99;100477.69;5052766;28;20068;-74
2022/01/23 14:32:30;;;;;;;16.42;8.60;;;;;;;5.26;88.23;100485.97;5069261;28;20036;-74